Argonia, KS

9:10 AM CDT on September 20, 2014 (GMT -0500)
Anthony Medical Center | Change Station
CLOSE
Current Station
Personal Weather Station
Location: Anthony, KS
Elevation: 1355 ft
Nearby Weather Stations
4.0 Earthquake: Medford, Oklahoma (1 day ago)  

Elev 1355 ft 37.16 °N, 98.02 °W | Updated 31 seconds ago

Clear
Clear
73.9 °F
Feels Like 73 °F
N
2.0
Wind Variable Wind from SSW
Gusts 2.0 mph

Today
High -- | Low -- °F
--% Chance of Precip.
Yesterday
High -- | Low -- °F
Precip. -- in
7:17 AM 7:31 PM
Waning Crescent, 12% visible
Pressure 29.96 in
Visibility 4.0 miles
Clouds Clear
Heat Index 73 °F
Dew Point 69 °F
Humidity 85%
Rainfall 0.00 in
Snow Depth Not available.
UV 1 out of 12
Pollen 6.30 out of 12
Air Quality Not available.
Flu Activity Not available.
METAR KICT 201353Z 19007KT 4SM BR CLR 22/19 A3000 RMK AO2 SLP145 T02170194

More Conditions Fewer Conditions

Pressure 29.96 in
Visibility 4.0 miles
Clouds Clear
Heat Index 73 °F
Dew Point 69 °F
Humidity 85%
Rainfall 0.00 in
Snow Depth Not available.
UV 1 out of 12
Pollen 6.30 out of 12
Air Quality Not available.
Flu Activity Not available.
METAR KICT 201353Z 19007KT 4SM BR CLR 22/19 A3000 RMK AO2 SLP145 T02170194

More Conditions Fewer Conditions

10-Day Weather Forecast

Almanac

Astronomy

Sep. 20, 2014 Rise Set
Actual Time 7:17 AM CDT 7:31 PM CDT
Civil Twilight 6:51 AM CDT 7:56 PM CDT
Nautical Twilight 6:20 AM CDT 8:27 PM CDT
Astronomical Twilight 5:49 AM CDT 8:58 PM CDT
Moon 4:01 AM CDT 5:32 PM CDT
Length of Visible Light 13h 05m
Length of Day
12h 13m
Tomorrow will be 2m 23s shorter.
Waning Crescent, 12% of the Moon is Illuminated
Today
Waning Crescent
Sep 24
New
Oct 1
First Quarter
Oct 8
Full
Oct 15
Last Quarter

Today's Extremes

State Highs State Lows

Community

WunderPhotos

Upload Photos

1,754,870 photos uploaded!

Nearby

Snow Depth

Station Depth Elevation
No new snow has been reported.

Earthquake Activity

City Distance Mag. Time & Date
Medford, Oklahoma 30 miles 3.2 2:10 AM CDT
2014-09-20
Luther, Oklahoma 116 miles 2.7 4:47 PM CDT
2014-09-19
Guthrie, Oklahoma 101 miles 3.6 12:23 PM CDT
2014-09-19
Jones, Oklahoma 120 miles 2.8 1:13 AM CDT
2014-09-19
Minimum magnitude displayed is 2.5.

Coastal Water Temperatures

Place Temperature
No Stations Reporting

Nearby Weather Stations